createdAt,value
2023-04-07T00:01:10.484Z,4.00
2023-04-07T00:03:41.496Z,4.20
2023-04-07T00:06:12.084Z,4.87
2023-04-07T00:08:42.344Z,4.73
2023-04-07T00:11:15.600Z,4.87
2023-04-07T00:13:45.661Z,4.47
2023-04-07T00:16:16.295Z,4.10
2023-04-07T00:18:46.324Z,5.37
2023-04-07T00:21:16.496Z,4.83
2023-04-07T00:23:47.229Z,4.53
2023-04-07T00:26:19.985Z,4.30
2023-04-07T00:28:51.050Z,4.87
2023-04-07T00:31:21.494Z,5.10
2023-04-07T00:33:51.791Z,4.83
2023-04-07T00:36:22.106Z,4.57
2023-04-07T00:38:52.223Z,6.37
2023-04-07T00:41:23.970Z,5.97
2023-04-07T00:43:54.639Z,7.13
2023-04-07T00:46:25.754Z,7.43
2023-04-07T00:48:56.439Z,7.50
2023-04-07T00:51:27.758Z,7.73
2023-04-07T00:53:58.443Z,5.90
2023-04-07T00:56:30.973Z,6.90
2023-04-07T00:59:01.245Z,5.57
2023-04-07T01:01:34.940Z,7.10
2023-04-07T01:04:11.169Z,6.70
2023-04-07T01:06:46.893Z,6.07
2023-04-07T01:09:20.257Z,6.60
2023-04-07T01:11:58.706Z,7.40
2023-04-07T01:14:33.240Z,6.13
2023-04-07T01:17:04.117Z,7.80
2023-04-07T01:19:39.046Z,8.60
2023-04-07T01:22:15.715Z,8.50
2023-04-07T01:25:18.325Z,7.90
2023-04-07T01:28:03.139Z,8.00
2023-04-07T01:30:38.777Z,8.90
2023-04-07T01:33:10.264Z,8.33
2023-04-07T01:35:41.713Z,7.97
2023-04-07T01:38:12.561Z,7.13
2023-04-07T01:40:43.900Z,8.00
2023-04-07T01:43:15.469Z,6.60
2023-04-07T01:45:48.005Z,6.77
2023-04-07T01:48:19.048Z,8.23
2023-04-07T01:50:49.910Z,7.63
2023-04-07T01:53:20.859Z,7.40
2023-04-07T01:55:51.781Z,7.47
2023-04-07T01:58:23.398Z,6.27
2023-04-07T02:00:55.329Z,6.43
2023-04-07T02:03:29.888Z,7.57
2023-04-07T02:06:05.440Z,6.67
2023-04-07T02:08:37.779Z,6.73
2023-04-07T02:11:09.539Z,6.07
2023-04-07T02:13:40.527Z,6.33
2023-04-07T02:16:13.416Z,5.90
2023-04-07T02:18:45.724Z,7.20
2023-04-07T02:21:17.906Z,8.87
2023-04-07T02:23:49.644Z,7.17
2023-04-07T02:26:19.477Z,7.53
2023-04-07T02:28:49.435Z,9.10
2023-04-07T02:31:21.272Z,7.70
2023-04-07T02:33:52.144Z,7.20
2023-04-07T02:36:22.464Z,7.70
2023-04-07T02:38:52.914Z,8.13
2023-04-07T02:41:23.114Z,7.80
2023-04-07T02:43:53.878Z,6.80
2023-04-07T02:46:26.064Z,7.20
2023-04-07T02:48:56.375Z,6.73
2023-04-07T02:51:27.405Z,8.23
2023-04-07T02:53:58.341Z,7.43
2023-04-07T02:56:28.333Z,8.47
2023-04-07T02:58:58.851Z,7.50
2023-04-07T03:01:32.342Z,8.27
2023-04-07T03:04:02.560Z,7.57
2023-04-07T03:06:33.879Z,6.43
2023-04-07T03:09:04.724Z,7.33
2023-04-07T03:11:34.677Z,7.40
2023-04-07T03:14:05.433Z,7.37
2023-04-07T03:16:37.931Z,6.47
2023-04-07T03:19:08.154Z,7.40
2023-04-07T03:21:39.585Z,6.27
2023-04-07T03:24:10.742Z,7.37
2023-04-07T03:26:40.670Z,6.83
2023-04-07T03:29:10.618Z,7.30
2023-04-07T03:31:43.405Z,7.10
2023-04-07T03:34:13.416Z,7.47
2023-04-07T03:36:43.508Z,7.67
2023-04-07T03:39:15.134Z,7.50
2023-04-07T03:41:46.433Z,8.57
2023-04-07T03:44:16.614Z,7.37
2023-04-07T03:46:51.743Z,7.57
2023-04-07T03:49:21.522Z,7.27
2023-04-07T03:51:52.204Z,7.73
2023-04-07T03:54:23.228Z,6.80
2023-04-07T03:56:53.664Z,6.83
2023-04-07T03:59:24.393Z,6.30
2023-04-07T04:01:56.677Z,6.60
2023-04-07T04:04:27.109Z,7.17
2023-04-07T04:06:57.367Z,7.03
2023-04-07T04:09:27.870Z,6.83
2023-04-07T04:11:58.328Z,6.70
2023-04-07T04:14:28.970Z,5.97
2023-04-07T04:17:01.292Z,6.23
2023-04-07T04:19:36.373Z,6.50
2023-04-07T04:22:06.553Z,6.00
2023-04-07T04:24:37.565Z,6.77
2023-04-07T04:27:07.574Z,6.67
2023-04-07T04:29:37.885Z,6.47
2023-04-07T04:32:09.903Z,6.03
2023-04-07T04:34:42.401Z,6.40
2023-04-07T04:37:13.039Z,7.20
2023-04-07T04:39:42.900Z,5.67
2023-04-07T04:42:13.298Z,6.70
2023-04-07T04:44:44.911Z,7.20
2023-04-07T04:47:16.630Z,6.47
2023-04-07T04:49:47.324Z,6.80
2023-04-07T04:52:18.101Z,6.00
2023-04-07T04:54:48.837Z,6.57
2023-04-07T04:57:19.236Z,6.47
2023-04-07T04:59:49.493Z,5.47
2023-04-07T05:02:22.355Z,6.00
2023-04-07T05:04:53.543Z,5.70
2023-04-07T05:07:23.449Z,7.40
2023-04-07T05:09:53.515Z,6.73
2023-04-07T05:12:23.625Z,7.57
2023-04-07T05:14:53.988Z,9.33
2023-04-07T05:17:26.648Z,7.33
2023-04-07T05:19:57.063Z,7.30
2023-04-07T05:22:26.918Z,7.90
2023-04-07T05:24:57.448Z,7.87
2023-04-07T05:27:28.074Z,7.93
2023-04-07T05:29:57.700Z,7.07
2023-04-07T05:32:32.674Z,7.23
2023-04-07T05:35:03.370Z,8.83
2023-04-07T05:37:34.244Z,7.40
2023-04-07T05:40:05.143Z,7.93
2023-04-07T05:42:35.365Z,8.37
2023-04-07T05:45:05.693Z,8.43
2023-04-07T05:47:37.575Z,7.00
2023-04-07T05:50:08.985Z,7.47
2023-04-07T05:52:40.350Z,7.70
2023-04-07T05:55:11.247Z,8.73
2023-04-07T05:57:42.085Z,7.50
2023-04-07T06:00:14.019Z,9.03
2023-04-07T06:02:46.453Z,8.00
2023-04-07T06:05:17.563Z,8.83
2023-04-07T06:07:47.504Z,8.20
2023-04-07T06:10:18.004Z,9.60
2023-04-07T06:12:48.321Z,8.37
2023-04-07T06:15:18.457Z,7.87
2023-04-07T06:17:50.228Z,10.33
2023-04-07T06:20:21.965Z,9.03
2023-04-07T06:22:52.241Z,8.23
2023-04-07T06:25:22.419Z,8.30
2023-04-07T06:27:53.069Z,10.90
2023-04-07T06:30:24.152Z,14.13
2023-04-07T06:32:56.559Z,11.97
2023-04-07T06:35:28.459Z,11.43
2023-04-07T06:37:58.930Z,12.40
2023-04-07T06:40:30.489Z,13.33
2023-04-07T06:43:00.311Z,11.83
2023-04-07T06:45:30.635Z,11.57
2023-04-07T06:48:02.494Z,11.90
2023-04-07T06:50:34.035Z,13.00
2023-04-07T06:53:03.524Z,11.40
2023-04-07T06:55:33.851Z,12.00
2023-04-07T06:58:04.141Z,12.50
2023-04-07T07:00:34.114Z,12.63
2023-04-07T07:03:06.442Z,10.27
2023-04-07T07:05:37.635Z,10.30
2023-04-07T07:08:08.154Z,11.10
2023-04-07T07:10:38.799Z,11.57
2023-04-07T07:13:08.854Z,10.30
2023-04-07T07:15:39.137Z,11.57
2023-04-07T07:18:11.426Z,9.80
2023-04-07T07:20:41.689Z,10.13
2023-04-07T07:23:11.916Z,10.87
2023-04-07T07:25:42.801Z,10.00
2023-04-07T07:28:12.772Z,10.23
2023-04-07T07:30:44.067Z,10.60
2023-04-07T07:33:15.763Z,9.67
2023-04-07T07:35:45.859Z,10.80
2023-04-07T07:38:15.853Z,10.90
2023-04-07T07:40:48.088Z,11.40
2023-04-07T07:43:19.346Z,11.17
2023-04-07T07:45:50.302Z,9.73
2023-04-07T07:48:21.535Z,11.97
2023-04-07T07:50:52.578Z,11.20
2023-04-07T07:53:23.048Z,11.53
2023-04-07T07:55:53.620Z,11.87
2023-04-07T07:58:23.747Z,12.10
2023-04-07T08:00:54.340Z,11.30
2023-04-07T08:03:26.595Z,11.13
2023-04-07T08:05:57.166Z,9.10
2023-04-07T08:08:28.501Z,9.43
2023-04-07T08:10:58.465Z,10.30
2023-04-07T08:13:29.140Z,9.47
2023-04-07T08:16:00.218Z,9.27
2023-04-07T08:18:32.693Z,7.67
2023-04-07T08:21:07.075Z,8.80
2023-04-07T08:23:37.186Z,7.20
2023-04-07T08:26:07.335Z,7.77
2023-04-07T08:28:37.957Z,7.13
2023-04-07T08:31:09.304Z,7.57
2023-04-07T08:33:41.306Z,6.77
2023-04-07T08:36:14.012Z,7.43
2023-04-07T08:38:45.486Z,7.53
2023-04-07T08:41:23.625Z,6.30
2023-04-07T08:43:55.547Z,7.73
2023-04-07T08:46:26.169Z,6.90
2023-04-07T08:48:59.394Z,8.00
2023-04-07T08:51:33.176Z,8.10
2023-04-07T08:54:09.059Z,6.50
2023-04-07T08:56:42.541Z,7.10
2023-04-07T08:59:15.034Z,6.83
2023-04-07T09:01:49.014Z,6.30
2023-04-07T09:04:23.236Z,8.20
2023-04-07T09:06:54.143Z,6.73
2023-04-07T09:09:25.242Z,6.93
2023-04-07T09:11:55.901Z,7.20
2023-04-07T09:14:26.639Z,5.87
2023-04-07T09:16:57.756Z,6.07
2023-04-07T09:19:31.366Z,6.27
2023-04-07T09:22:03.735Z,6.13
2023-04-07T09:24:35.226Z,6.63
2023-04-07T09:27:17.077Z,6.73
2023-04-07T09:29:52.141Z,6.57
2023-04-07T09:32:39.328Z,5.93
2023-04-07T09:35:12.868Z,6.03
2023-04-07T09:37:45.645Z,6.37
2023-04-07T09:40:29.538Z,5.40
2023-04-07T09:43:00.659Z,5.80
2023-04-07T09:45:35.740Z,7.33
2023-04-07T09:48:11.336Z,5.70
2023-04-07T09:50:46.409Z,6.03
2023-04-07T09:53:18.452Z,7.20
2023-04-07T09:55:50.364Z,5.80
2023-04-07T09:58:22.595Z,5.83
2023-04-07T10:00:54.855Z,6.20
2023-04-07T10:03:27.439Z,5.20
2023-04-07T10:06:00.164Z,5.77
2023-04-07T10:08:32.571Z,5.73
2023-04-07T10:11:04.695Z,5.10
2023-04-07T10:13:38.007Z,5.60
2023-04-07T10:16:11.096Z,5.47
2023-04-07T10:18:42.681Z,5.70
2023-04-07T10:21:15.865Z,5.70
2023-04-07T10:23:55.760Z,6.30
2023-04-07T10:26:31.135Z,5.80
2023-04-07T10:29:06.987Z,6.30
2023-04-07T10:31:38.377Z,5.53
2023-04-07T10:34:08.923Z,5.87
2023-04-07T10:37:11.228Z,5.83
2023-04-07T10:39:43.163Z,4.97
2023-04-07T10:42:44.429Z,6.10
2023-04-07T10:45:16.037Z,5.03
2023-04-07T10:48:13.743Z,5.73
2023-04-07T10:50:44.717Z,5.43
2023-04-07T10:53:18.058Z,5.70
2023-04-07T10:55:50.448Z,5.40
2023-04-07T10:58:23.181Z,5.50
2023-04-07T11:01:20.221Z,5.23
2023-04-07T11:04:00.547Z,5.60
2023-04-07T11:06:33.664Z,6.13
2023-04-07T11:09:06.622Z,5.50
2023-04-07T11:12:05.093Z,6.37
2023-04-07T11:14:38.383Z,5.93
2023-04-07T11:17:10.997Z,5.10
2023-04-07T11:19:54.795Z,5.77
2023-04-07T11:22:30.252Z,4.30
2023-04-07T11:25:02.734Z,5.17
2023-04-07T11:27:34.220Z,5.70
2023-04-07T11:30:07.329Z,5.77
2023-04-07T11:32:39.286Z,5.77
2023-04-07T11:35:11.578Z,5.70
2023-04-07T11:37:43.231Z,5.80
2023-04-07T11:40:17.309Z,5.63
2023-04-07T11:42:47.711Z,5.43
2023-04-07T11:45:23.023Z,6.07
2023-04-07T11:47:53.740Z,5.37
2023-04-07T11:50:43.644Z,5.03
2023-04-07T11:53:14.941Z,5.43
2023-04-07T11:55:48.114Z,5.20
2023-04-07T11:58:18.226Z,5.70
2023-04-07T12:00:58.417Z,5.17
2023-04-07T12:03:29.300Z,5.00
2023-04-07T12:06:00.198Z,5.07
2023-04-07T12:08:43.845Z,5.13
2023-04-07T12:11:15.820Z,5.40
2023-04-07T12:13:45.521Z,5.97
2023-04-07T12:16:15.482Z,5.03
2023-04-07T12:18:47.630Z,5.27
2023-04-07T12:21:18.170Z,5.33
2023-04-07T12:23:50.336Z,5.03
2023-04-07T12:26:27.340Z,5.30
2023-04-07T12:28:59.696Z,5.27
2023-04-07T12:31:31.657Z,5.00
2023-04-07T12:34:03.500Z,5.90
2023-04-07T12:36:41.211Z,5.00
2023-04-07T12:39:12.456Z,5.03
2023-04-07T12:41:45.868Z,5.77
2023-04-07T12:44:18.028Z,4.83
2023-04-07T12:46:48.364Z,5.40
2023-04-07T12:49:19.638Z,5.00
2023-04-07T12:51:51.171Z,5.07
2023-04-07T12:54:21.643Z,5.20
2023-04-07T12:56:53.147Z,4.87
2023-04-07T12:59:26.990Z,5.57
2023-04-07T13:01:57.756Z,5.20
2023-04-07T13:04:31.278Z,5.60
2023-04-07T13:07:03.546Z,5.50
2023-04-07T13:09:34.476Z,5.50
2023-04-07T13:12:08.121Z,5.30
2023-04-07T13:14:49.294Z,6.13
2023-04-07T13:17:29.260Z,6.00
2023-04-07T13:19:59.671Z,6.53
2023-04-07T13:22:30.864Z,6.77
2023-04-07T13:25:02.045Z,7.17
2023-04-07T13:27:34.761Z,8.00
2023-04-07T13:30:04.980Z,6.67
2023-04-07T13:32:35.444Z,7.70
2023-04-07T13:35:06.135Z,8.13
2023-04-07T13:37:37.937Z,7.80
2023-04-07T13:40:10.777Z,7.87
2023-04-07T13:42:43.484Z,7.70
2023-04-07T13:45:14.791Z,7.60
2023-04-07T13:47:47.496Z,8.20
2023-04-07T13:50:17.655Z,7.33
2023-04-07T13:52:48.516Z,6.63
2023-04-07T13:55:21.015Z,7.00
2023-04-07T13:57:53.947Z,8.30
2023-04-07T14:00:25.211Z,6.97
2023-04-07T14:02:56.539Z,9.17
2023-04-07T14:05:27.144Z,7.57
2023-04-07T14:08:00.078Z,8.10
2023-04-07T14:10:30.699Z,7.50
2023-04-07T14:13:02.468Z,7.20
2023-04-07T14:15:32.738Z,7.53
2023-04-07T14:18:02.994Z,8.97
2023-04-07T14:20:34.013Z,6.80
2023-04-07T14:23:05.913Z,8.10
2023-04-07T14:25:35.679Z,8.03
2023-04-07T14:28:08.487Z,8.40
2023-04-07T14:30:39.551Z,6.83
2023-04-07T14:33:10.723Z,7.90
2023-04-07T14:35:42.015Z,7.77
2023-04-07T14:38:12.655Z,7.70
2023-04-07T14:40:43.163Z,6.47
2023-04-07T14:43:17.571Z,7.80
2023-04-07T14:45:48.052Z,8.23
2023-04-07T14:48:18.791Z,8.00
2023-04-07T14:51:02.267Z,7.67
2023-04-07T14:53:39.649Z,8.37
2023-04-07T14:56:10.668Z,8.50
2023-04-07T14:58:43.283Z,8.10
2023-04-07T15:01:13.478Z,8.80
2023-04-07T15:03:44.326Z,8.37
2023-04-07T15:06:18.242Z,7.50
2023-04-07T15:08:48.986Z,8.27
2023-04-07T15:11:20.203Z,7.50
2023-04-07T15:13:51.895Z,7.47
2023-04-07T15:16:24.875Z,8.20
2023-04-07T15:18:59.233Z,6.73
2023-04-07T15:21:32.001Z,9.17
2023-04-07T15:24:02.458Z,6.83
2023-04-07T15:26:32.871Z,7.60
2023-04-07T15:29:06.094Z,8.20
2023-04-07T15:31:36.698Z,7.93
2023-04-07T15:34:07.286Z,8.50
2023-04-07T15:36:38.047Z,8.77
2023-04-07T15:39:09.115Z,9.63
2023-04-07T15:41:39.284Z,9.73
2023-04-07T15:44:12.038Z,10.70
2023-04-07T15:46:42.481Z,9.97
2023-04-07T15:49:13.883Z,10.60
2023-04-07T15:51:44.415Z,9.60
2023-04-07T15:54:15.472Z,9.33
2023-04-07T15:56:46.203Z,11.00
2023-04-07T15:59:18.572Z,11.00
2023-04-07T16:01:48.576Z,10.17
2023-04-07T16:04:19.917Z,9.97
2023-04-07T16:06:50.721Z,10.63
2023-04-07T16:09:21.885Z,12.00
2023-04-07T16:11:52.748Z,11.23
2023-04-07T16:14:29.521Z,10.70
2023-04-07T16:16:59.543Z,11.70
2023-04-07T16:19:29.961Z,10.90
2023-04-07T16:22:00.097Z,12.27
2023-04-07T16:24:31.590Z,12.40
2023-04-07T16:27:04.163Z,13.23
2023-04-07T16:29:37.740Z,12.00
2023-04-07T16:32:09.212Z,11.43
2023-04-07T16:34:40.689Z,12.57
2023-04-07T16:37:11.106Z,11.30
2023-04-07T16:39:42.365Z,10.80
2023-04-07T16:42:12.601Z,12.40
2023-04-07T16:44:45.187Z,11.20
2023-04-07T16:47:15.465Z,12.73
2023-04-07T16:49:47.323Z,9.90
2023-04-07T16:52:20.536Z,12.10
2023-04-07T16:54:52.263Z,11.00
2023-04-07T16:57:23.244Z,11.10
2023-04-07T16:59:57.684Z,12.10
2023-04-07T17:02:29.880Z,13.40
2023-04-07T17:05:01.442Z,12.73
2023-04-07T17:07:31.639Z,12.53
2023-04-07T17:10:02.435Z,13.23
2023-04-07T17:12:32.833Z,13.17
2023-04-07T17:15:06.114Z,13.10
2023-04-07T17:17:39.541Z,13.23
2023-04-07T17:20:12.895Z,13.00
2023-04-07T17:22:45.083Z,11.37
2023-04-07T17:25:18.835Z,12.77
2023-04-07T17:27:49.896Z,11.90
2023-04-07T17:30:21.623Z,12.77
2023-04-07T17:32:53.357Z,14.47
2023-04-07T17:35:25.379Z,13.73
2023-04-07T17:37:56.764Z,14.70
2023-04-07T17:40:27.890Z,12.60
2023-04-07T17:42:58.590Z,10.70
2023-04-07T17:45:31.327Z,13.07
2023-04-07T17:48:05.718Z,12.90
2023-04-07T17:50:36.932Z,14.33
2023-04-07T17:53:08.611Z,12.43
2023-04-07T17:55:54.569Z,11.93
2023-04-07T17:58:25.495Z,12.60
2023-04-07T18:00:57.474Z,11.53
2023-04-07T18:03:27.961Z,13.60
2023-04-07T18:05:58.391Z,12.97
2023-04-07T18:08:30.771Z,12.17
2023-04-07T18:11:00.836Z,12.70
2023-04-07T18:13:32.267Z,12.00
2023-04-07T18:16:08.015Z,11.40
2023-04-07T18:18:47.117Z,12.43
2023-04-07T18:21:17.551Z,13.60
2023-04-07T18:23:48.592Z,12.90
2023-04-07T18:26:19.219Z,13.07
2023-04-07T18:28:48.865Z,11.97
2023-04-07T18:31:21.768Z,12.33
2023-04-07T18:33:51.810Z,13.40
2023-04-07T18:36:27.408Z,12.97
2023-04-07T18:38:57.814Z,13.37
2023-04-07T18:41:27.771Z,12.30
2023-04-07T18:43:58.712Z,12.90
2023-04-07T18:46:33.512Z,13.70
2023-04-07T18:49:04.863Z,13.30
2023-04-07T18:51:35.461Z,11.80
2023-04-07T18:54:06.662Z,13.70
2023-04-07T18:56:36.846Z,12.53
2023-04-07T18:59:07.910Z,11.03
2023-04-07T19:01:42.725Z,11.23
2023-04-07T19:04:13.433Z,12.07
2023-04-07T19:06:44.276Z,13.27
2023-04-07T19:09:14.821Z,12.67
2023-04-07T19:11:44.497Z,13.23
2023-04-07T19:14:14.604Z,14.53
2023-04-07T19:16:47.671Z,13.03
2023-04-07T19:19:18.038Z,13.10
2023-04-07T19:21:48.726Z,11.50
2023-04-07T19:24:19.375Z,12.47
2023-04-07T19:26:51.239Z,13.70
2023-04-07T19:29:21.689Z,12.97
2023-04-07T19:31:55.411Z,14.97
2023-04-07T19:34:28.025Z,14.30
2023-04-07T19:36:59.739Z,16.73
2023-04-07T19:39:30.809Z,14.53
2023-04-07T19:42:01.321Z,15.23
2023-04-07T19:44:34.698Z,13.50
2023-04-07T19:47:09.135Z,11.73
2023-04-07T19:49:39.495Z,13.07
2023-04-07T19:52:13.182Z,12.30
2023-04-07T19:54:43.666Z,12.63
2023-04-07T19:57:16.270Z,12.00
2023-04-07T19:59:47.127Z,11.03
2023-04-07T20:02:19.690Z,12.20
2023-04-07T20:04:50.191Z,13.03
2023-04-07T20:07:20.642Z,15.73
2023-04-07T20:09:52.189Z,14.73
2023-04-07T20:12:22.806Z,13.80
2023-04-07T20:14:53.250Z,14.53
2023-04-07T20:17:25.015Z,15.13
2023-04-07T20:19:56.868Z,14.83
2023-04-07T20:22:27.137Z,14.77
2023-04-07T20:24:57.329Z,13.63
2023-04-07T20:27:28.601Z,14.23
2023-04-07T20:29:59.295Z,13.60
2023-04-07T20:32:32.451Z,12.80
2023-04-07T20:35:03.681Z,13.43
2023-04-07T20:37:37.067Z,13.90
2023-04-07T20:40:09.596Z,13.43
2023-04-07T20:42:41.192Z,13.30
2023-04-07T20:45:15.788Z,15.20
2023-04-07T20:47:50.838Z,13.63
2023-04-07T20:50:21.340Z,13.73
2023-04-07T20:52:51.945Z,12.90
2023-04-07T20:55:22.189Z,13.37
2023-04-07T20:57:56.854Z,12.33
2023-04-07T21:00:28.812Z,11.80
2023-04-07T21:03:00.730Z,12.13
2023-04-07T21:05:31.577Z,13.73
2023-04-07T21:08:02.178Z,11.40
2023-04-07T21:10:33.467Z,12.20
2023-04-07T21:13:04.382Z,13.23
2023-04-07T21:15:35.672Z,14.40
2023-04-07T21:18:07.448Z,12.83
2023-04-07T21:20:39.275Z,12.97
2023-04-07T21:23:09.971Z,14.00
2023-04-07T21:25:40.209Z,13.43
2023-04-07T21:28:10.516Z,13.37
2023-04-07T21:30:43.308Z,14.97
2023-04-07T21:33:16.120Z,16.27
2023-04-07T21:35:49.458Z,13.93
2023-04-07T21:38:20.650Z,14.20
2023-04-07T21:40:51.182Z,13.93
2023-04-07T21:43:22.853Z,17.50
2023-04-07T21:45:55.224Z,16.00
2023-04-07T21:48:29.939Z,17.43
2023-04-07T21:51:00.209Z,21.10
2023-04-07T21:53:31.313Z,19.57
2023-04-07T21:56:01.065Z,18.53
2023-04-07T21:58:31.160Z,18.00
2023-04-07T22:01:02.756Z,18.37
2023-04-07T22:03:36.715Z,19.87
2023-04-07T22:06:07.604Z,17.80
2023-04-07T22:08:38.109Z,17.70
2023-04-07T22:11:09.094Z,18.80
2023-04-07T22:13:40.298Z,18.03
2023-04-07T22:16:10.837Z,16.77
2023-04-07T22:18:43.867Z,15.40
2023-04-07T22:21:13.899Z,15.23
2023-04-07T22:23:44.684Z,15.93
2023-04-07T22:26:14.881Z,18.50
2023-04-07T22:28:45.463Z,15.50
2023-04-07T22:31:15.772Z,16.30
2023-04-07T22:33:48.438Z,18.23
2023-04-07T22:36:18.564Z,16.83
2023-04-07T22:38:49.794Z,17.87
2023-04-07T22:41:22.013Z,17.60
2023-04-07T22:43:51.970Z,16.83
2023-04-07T22:46:23.116Z,16.77
2023-04-07T22:48:55.114Z,17.23
2023-04-07T22:51:26.216Z,17.30
2023-04-07T22:53:58.011Z,14.53
2023-04-07T22:56:31.075Z,15.67
2023-04-07T22:59:05.884Z,15.13
2023-04-07T23:01:37.429Z,13.67
2023-04-07T23:04:09.939Z,15.10
2023-04-07T23:06:43.959Z,15.50
2023-04-07T23:09:14.002Z,14.03
2023-04-07T23:11:45.315Z,15.63
2023-04-07T23:14:16.086Z,15.27
2023-04-07T23:16:46.778Z,15.93
2023-04-07T23:19:19.042Z,15.90
2023-04-07T23:21:49.980Z,15.10
2023-04-07T23:24:20.492Z,16.43
2023-04-07T23:26:51.116Z,14.20
2023-04-07T23:29:21.539Z,15.60
2023-04-07T23:31:52.992Z,15.97
2023-04-07T23:34:25.372Z,14.90
2023-04-07T23:36:56.294Z,15.37
2023-04-07T23:39:26.628Z,14.80
2023-04-07T23:41:57.853Z,16.03
2023-04-07T23:44:28.493Z,14.57
2023-04-07T23:46:58.447Z,15.90
2023-04-07T23:49:30.517Z,15.17
2023-04-07T23:52:00.915Z,14.03
2023-04-07T23:54:31.423Z,14.30
2023-04-07T23:57:01.924Z,15.47
2023-04-07T23:59:32.656Z,13.57
